sensor_id;sensor_type;location;lat;lon;timestamp;temperature;humidity
5280;DHT22;2663;53.588;10.010;2023-07-13T00:01:49;18.70;99.90
5280;DHT22;2663;53.588;10.010;2023-07-13T00:04:18;18.70;99.90
5280;DHT22;2663;53.588;10.010;2023-07-13T00:06:46;18.70;99.90
5280;DHT22;2663;53.588;10.010;2023-07-13T00:09:14;18.60;99.90
5280;DHT22;2663;53.588;10.010;2023-07-13T00:11:41;18.60;99.90
5280;DHT22;2663;53.588;10.010;2023-07-13T00:14:08;18.60;99.90
5280;DHT22;2663;53.588;10.010;2023-07-13T00:16:36;18.60;99.90
5280;DHT22;2663;53.588;10.010;2023-07-13T00:19:04;18.50;99.90
5280;DHT22;2663;53.588;10.010;2023-07-13T00:21:31;18.50;99.90
5280;DHT22;2663;53.588;10.010;2023-07-13T00:23:58;18.50;99.90
5280;DHT22;2663;53.588;10.010;2023-07-13T00:26:26;18.50;99.90
5280;DHT22;2663;53.588;10.010;2023-07-13T00:28:53;18.40;99.90
5280;DHT22;2663;53.588;10.010;2023-07-13T00:31:20;18.40;99.90
5280;DHT22;2663;53.588;10.010;2023-07-13T00:33:47;18.40;99.90
5280;DHT22;2663;53.588;10.010;2023-07-13T00:36:14;18.30;99.90
5280;DHT22;2663;53.588;10.010;2023-07-13T00:38:41;18.10;99.90
5280;DHT22;2663;53.588;10.010;2023-07-13T00:41:08;18.30;99.90
5280;DHT22;2663;53.588;10.010;2023-07-13T00:43:35;18.40;99.90
5280;DHT22;2663;53.588;10.010;2023-07-13T00:46:09;18.40;99.90
5280;DHT22;2663;53.588;10.010;2023-07-13T00:48:37;18.30;99.90
5280;DHT22;2663;53.588;10.010;2023-07-13T00:51:05;18.30;99.90
5280;DHT22;2663;53.588;10.010;2023-07-13T00:53:33;18.30;99.90
5280;DHT22;2663;53.588;10.010;2023-07-13T00:56:01;18.30;99.90
5280;DHT22;2663;53.588;10.010;2023-07-13T00:58:28;18.30;99.90
5280;DHT22;2663;53.588;10.010;2023-07-13T01:00:55;18.40;99.90
5280;DHT22;2663;53.588;10.010;2023-07-13T01:03:22;18.40;99.90
5280;DHT22;2663;53.588;10.010;2023-07-13T01:05:49;18.40;99.90
5280;DHT22;2663;53.588;10.010;2023-07-13T01:08:16;18.40;99.90
5280;DHT22;2663;53.588;10.010;2023-07-13T01:10:53;18.40;99.90
5280;DHT22;2663;53.588;10.010;2023-07-13T01:13:21;18.50;99.90
5280;DHT22;2663;53.588;10.010;2023-07-13T01:15:49;18.50;99.90
5280;DHT22;2663;53.588;10.010;2023-07-13T01:18:24;17.30;99.90
5280;DHT22;2663;53.588;10.010;2023-07-13T01:20:59;18.50;99.90
5280;DHT22;2663;53.588;10.010;2023-07-13T01:23:27;18.50;99.90
5280;DHT22;2663;53.588;10.010;2023-07-13T01:25:55;18.50;99.90
5280;DHT22;2663;53.588;10.010;2023-07-13T01:28:24;18.50;99.90
5280;DHT22;2663;53.588;10.010;2023-07-13T01:30:54;18.40;99.90
5280;DHT22;2663;53.588;10.010;2023-07-13T01:33:22;18.50;99.90
5280;DHT22;2663;53.588;10.010;2023-07-13T01:35:49;18.60;99.90
5280;DHT22;2663;53.588;10.010;2023-07-13T01:38:20;18.60;99.90
5280;DHT22;2663;53.588;10.010;2023-07-13T01:40:47;18.50;99.90
5280;DHT22;2663;53.588;10.010;2023-07-13T01:43:14;18.50;99.90
5280;DHT22;2663;53.588;10.010;2023-07-13T01:45:41;18.50;99.90
5280;DHT22;2663;53.588;10.010;2023-07-13T01:48:12;18.50;99.90
5280;DHT22;2663;53.588;10.010;2023-07-13T01:50:39;18.50;99.90
5280;DHT22;2663;53.588;10.010;2023-07-13T01:53:06;18.50;99.90
5280;DHT22;2663;53.588;10.010;2023-07-13T01:55:33;18.40;99.90
5280;DHT22;2663;53.588;10.010;2023-07-13T01:58:00;18.40;99.90
5280;DHT22;2663;53.588;10.010;2023-07-13T02:00:27;18.30;99.90
5280;DHT22;2663;53.588;10.010;2023-07-13T02:02:54;18.40;99.90
5280;DHT22;2663;53.588;10.010;2023-07-13T02:05:21;18.40;99.90
5280;DHT22;2663;53.588;10.010;2023-07-13T02:07:48;18.40;99.90
5280;DHT22;2663;53.588;10.010;2023-07-13T02:10:15;18.40;99.90
5280;DHT22;2663;53.588;10.010;2023-07-13T02:12:42;18.40;99.90
5280;DHT22;2663;53.588;10.010;2023-07-13T02:15:10;18.30;99.90
5280;DHT22;2663;53.588;10.010;2023-07-13T02:17:37;18.30;99.90
5280;DHT22;2663;53.588;10.010;2023-07-13T02:20:04;18.30;99.90
5280;DHT22;2663;53.588;10.010;2023-07-13T02:22:31;18.30;99.90
5280;DHT22;2663;53.588;10.010;2023-07-13T02:24:58;18.30;99.90
5280;DHT22;2663;53.588;10.010;2023-07-13T02:27:25;18.30;99.90
5280;DHT22;2663;53.588;10.010;2023-07-13T02:29:53;18.30;99.90
5280;DHT22;2663;53.588;10.010;2023-07-13T02:32:21;18.30;99.90
5280;DHT22;2663;53.588;10.010;2023-07-13T02:34:48;18.20;99.90
5280;DHT22;2663;53.588;10.010;2023-07-13T02:37:14;18.30;99.90
5280;DHT22;2663;53.588;10.010;2023-07-13T02:39:41;18.30;99.90
5280;DHT22;2663;53.588;10.010;2023-07-13T02:42:08;18.20;99.90
5280;DHT22;2663;53.588;10.010;2023-07-13T02:44:35;18.30;99.90
5280;DHT22;2663;53.588;10.010;2023-07-13T02:47:01;18.30;99.90
5280;DHT22;2663;53.588;10.010;2023-07-13T02:49:28;18.30;99.90
5280;DHT22;2663;53.588;10.010;2023-07-13T02:51:55;18.10;99.90
5280;DHT22;2663;53.588;10.010;2023-07-13T02:54:22;18.10;99.90
5280;DHT22;2663;53.588;10.010;2023-07-13T02:56:49;18.10;99.90
5280;DHT22;2663;53.588;10.010;2023-07-13T02:59:15;18.20;99.90
5280;DHT22;2663;53.588;10.010;2023-07-13T03:01:42;18.20;99.90
5280;DHT22;2663;53.588;10.010;2023-07-13T03:04:09;18.20;99.90
5280;DHT22;2663;53.588;10.010;2023-07-13T03:06:36;18.20;99.90
5280;DHT22;2663;53.588;10.010;2023-07-13T03:09:03;18.10;99.90
5280;DHT22;2663;53.588;10.010;2023-07-13T03:11:30;18.20;99.90
5280;DHT22;2663;53.588;10.010;2023-07-13T03:13:57;18.20;99.90
5280;DHT22;2663;53.588;10.010;2023-07-13T03:16:24;18.10;99.90
5280;DHT22;2663;53.588;10.010;2023-07-13T03:18:50;18.10;99.90
5280;DHT22;2663;53.588;10.010;2023-07-13T03:21:27;18.10;99.90
5280;DHT22;2663;53.588;10.010;2023-07-13T03:23:54;18.10;99.90
5280;DHT22;2663;53.588;10.010;2023-07-13T03:26:21;18.20;99.90
5280;DHT22;2663;53.588;10.010;2023-07-13T03:28:48;19.60;99.90
5280;DHT22;2663;53.588;10.010;2023-07-13T03:31:22;18.20;99.90
5280;DHT22;2663;53.588;10.010;2023-07-13T03:33:49;18.20;99.90
5280;DHT22;2663;53.588;10.010;2023-07-13T03:36:19;18.20;99.90
5280;DHT22;2663;53.588;10.010;2023-07-13T03:38:47;18.20;99.90
5280;DHT22;2663;53.588;10.010;2023-07-13T03:41:15;18.10;99.90
5280;DHT22;2663;53.588;10.010;2023-07-13T03:43:42;18.10;99.90
5280;DHT22;2663;53.588;10.010;2023-07-13T03:46:09;18.10;99.90
5280;DHT22;2663;53.588;10.010;2023-07-13T03:48:37;18.10;99.90
5280;DHT22;2663;53.588;10.010;2023-07-13T03:51:06;18.00;99.90
5280;DHT22;2663;53.588;10.010;2023-07-13T03:53:33;18.00;99.90
5280;DHT22;2663;53.588;10.010;2023-07-13T03:55:59;18.00;99.90
5280;DHT22;2663;53.588;10.010;2023-07-13T03:58:34;18.10;99.90
5280;DHT22;2663;53.588;10.010;2023-07-13T04:01:03;18.10;99.90
5280;DHT22;2663;53.588;10.010;2023-07-13T04:03:30;18.10;99.90
5280;DHT22;2663;53.588;10.010;2023-07-13T04:06:03;18.10;99.90
5280;DHT22;2663;53.588;10.010;2023-07-13T04:08:33;18.10;99.90
5280;DHT22;2663;53.588;10.010;2023-07-13T04:11:01;18.10;99.90
5280;DHT22;2663;53.588;10.010;2023-07-13T04:13:29;18.20;99.90
5280;DHT22;2663;53.588;10.010;2023-07-13T04:15:56;18.10;99.90
5280;DHT22;2663;53.588;10.010;2023-07-13T04:18:22;18.10;99.90
5280;DHT22;2663;53.588;10.010;2023-07-13T04:20:50;18.10;99.90
5280;DHT22;2663;53.588;10.010;2023-07-13T04:23:17;18.10;99.90
5280;DHT22;2663;53.588;10.010;2023-07-13T04:25:45;18.10;99.90
5280;DHT22;2663;53.588;10.010;2023-07-13T04:28:12;18.00;99.90
5280;DHT22;2663;53.588;10.010;2023-07-13T04:30:39;18.10;99.90
5280;DHT22;2663;53.588;10.010;2023-07-13T04:33:06;18.10;99.90
5280;DHT22;2663;53.588;10.010;2023-07-13T04:35:32;18.10;99.90
5280;DHT22;2663;53.588;10.010;2023-07-13T04:37:59;18.10;99.90
5280;DHT22;2663;53.588;10.010;2023-07-13T04:40:27;18.10;99.90
5280;DHT22;2663;53.588;10.010;2023-07-13T04:42:54;18.10;99.90
5280;DHT22;2663;53.588;10.010;2023-07-13T04:45:21;18.10;99.90
5280;DHT22;2663;53.588;10.010;2023-07-13T04:47:48;18.20;99.90
5280;DHT22;2663;53.588;10.010;2023-07-13T04:50:15;18.20;99.90
5280;DHT22;2663;53.588;10.010;2023-07-13T04:52:45;18.30;99.90
5280;DHT22;2663;53.588;10.010;2023-07-13T04:55:12;18.10;99.90
5280;DHT22;2663;53.588;10.010;2023-07-13T04:57:38;18.20;99.90
5280;DHT22;2663;53.588;10.010;2023-07-13T05:00:05;18.20;99.90
5280;DHT22;2663;53.588;10.010;2023-07-13T05:02:34;18.20;99.90
5280;DHT22;2663;53.588;10.010;2023-07-13T05:05:01;18.20;99.90
5280;DHT22;2663;53.588;10.010;2023-07-13T05:07:30;18.20;99.90
5280;DHT22;2663;53.588;10.010;2023-07-13T05:09:59;17.30;99.90
5280;DHT22;2663;53.588;10.010;2023-07-13T05:12:26;18.30;99.90
5280;DHT22;2663;53.588;10.010;2023-07-13T05:14:53;18.40;99.90
5280;DHT22;2663;53.588;10.010;2023-07-13T05:17:20;18.30;99.90
5280;DHT22;2663;53.588;10.010;2023-07-13T05:19:47;18.50;99.90
5280;DHT22;2663;53.588;10.010;2023-07-13T05:22:14;18.50;99.90
5280;DHT22;2663;53.588;10.010;2023-07-13T05:24:40;18.30;99.90
5280;DHT22;2663;53.588;10.010;2023-07-13T05:27:07;18.50;99.90
5280;DHT22;2663;53.588;10.010;2023-07-13T05:29:34;18.50;99.90
5280;DHT22;2663;53.588;10.010;2023-07-13T05:32:00;18.50;99.90
5280;DHT22;2663;53.588;10.010;2023-07-13T05:34:27;18.40;99.90
5280;DHT22;2663;53.588;10.010;2023-07-13T05:36:54;18.40;99.90
5280;DHT22;2663;53.588;10.010;2023-07-13T05:39:21;18.20;99.90
5280;DHT22;2663;53.588;10.010;2023-07-13T05:41:48;18.30;99.90
5280;DHT22;2663;53.588;10.010;2023-07-13T05:44:15;18.20;99.90
5280;DHT22;2663;53.588;10.010;2023-07-13T05:46:42;18.10;99.90
5280;DHT22;2663;53.588;10.010;2023-07-13T05:49:08;18.10;99.90
5280;DHT22;2663;53.588;10.010;2023-07-13T05:51:35;18.10;99.90
5280;DHT22;2663;53.588;10.010;2023-07-13T05:54:02;18.20;99.90
5280;DHT22;2663;53.588;10.010;2023-07-13T05:56:29;18.10;99.90
5280;DHT22;2663;53.588;10.010;2023-07-13T05:58:56;18.20;99.90
5280;DHT22;2663;53.588;10.010;2023-07-13T06:01:23;18.20;99.90
5280;DHT22;2663;53.588;10.010;2023-07-13T06:03:50;18.20;99.90
5280;DHT22;2663;53.588;10.010;2023-07-13T06:06:17;18.10;99.90
5280;DHT22;2663;53.588;10.010;2023-07-13T06:08:44;18.30;99.90
5280;DHT22;2663;53.588;10.010;2023-07-13T06:11:22;18.20;99.90
5280;DHT22;2663;53.588;10.010;2023-07-13T06:13:49;18.10;99.90
5280;DHT22;2663;53.588;10.010;2023-07-13T06:16:16;19.30;99.90
5280;DHT22;2663;53.588;10.010;2023-07-13T06:18:43;18.00;99.90
5280;DHT22;2663;53.588;10.010;2023-07-13T06:21:13;18.10;99.90
5280;DHT22;2663;53.588;10.010;2023-07-13T06:23:41;18.10;99.90
5280;DHT22;2663;53.588;10.010;2023-07-13T06:26:08;18.20;99.90
5280;DHT22;2663;53.588;10.010;2023-07-13T06:28:36;18.20;99.90
5280;DHT22;2663;53.588;10.010;2023-07-13T06:31:06;18.20;99.90
5280;DHT22;2663;53.588;10.010;2023-07-13T06:33:34;18.20;99.90
5280;DHT22;2663;53.588;10.010;2023-07-13T06:36:02;18.10;99.90
5280;DHT22;2663;53.588;10.010;2023-07-13T06:38:29;18.20;99.90
5280;DHT22;2663;53.588;10.010;2023-07-13T06:40:55;18.30;99.90
5280;DHT22;2663;53.588;10.010;2023-07-13T06:43:22;18.30;99.90
5280;DHT22;2663;53.588;10.010;2023-07-13T06:45:54;18.40;99.90
5280;DHT22;2663;53.588;10.010;2023-07-13T06:48:21;18.40;99.90
5280;DHT22;2663;53.588;10.010;2023-07-13T06:50:49;18.50;99.90
5280;DHT22;2663;53.588;10.010;2023-07-13T06:53:17;18.50;99.90
5280;DHT22;2663;53.588;10.010;2023-07-13T06:55:45;18.60;99.90
5280;DHT22;2663;53.588;10.010;2023-07-13T06:58:12;18.40;99.90
5280;DHT22;2663;53.588;10.010;2023-07-13T07:00:39;18.40;99.90
5280;DHT22;2663;53.588;10.010;2023-07-13T07:03:06;18.50;99.90
5280;DHT22;2663;53.588;10.010;2023-07-13T07:05:33;18.60;99.90
5280;DHT22;2663;53.588;10.010;2023-07-13T07:08:00;18.70;99.90
5280;DHT22;2663;53.588;10.010;2023-07-13T07:10:29;18.80;99.90
5280;DHT22;2663;53.588;10.010;2023-07-13T07:12:57;19.00;99.90
5280;DHT22;2663;53.588;10.010;2023-07-13T07:15:23;18.90;99.90
5280;DHT22;2663;53.588;10.010;2023-07-13T07:17:50;18.90;99.90
5280;DHT22;2663;53.588;10.010;2023-07-13T07:20:17;19.00;99.90
5280;DHT22;2663;53.588;10.010;2023-07-13T07:22:44;19.20;99.90
5280;DHT22;2663;53.588;10.010;2023-07-13T07:25:10;19.40;99.90
5280;DHT22;2663;53.588;10.010;2023-07-13T07:27:37;19.40;99.90
5280;DHT22;2663;53.588;10.010;2023-07-13T07:30:07;19.40;99.90
5280;DHT22;2663;53.588;10.010;2023-07-13T07:32:37;19.20;99.90
5280;DHT22;2663;53.588;10.010;2023-07-13T07:35:07;19.40;99.90
5280;DHT22;2663;53.588;10.010;2023-07-13T07:37:34;19.50;99.90
5280;DHT22;2663;53.588;10.010;2023-07-13T07:40:04;19.50;99.90
5280;DHT22;2663;53.588;10.010;2023-07-13T07:42:33;19.60;99.90
5280;DHT22;2663;53.588;10.010;2023-07-13T07:45:00;19.60;99.90
5280;DHT22;2663;53.588;10.010;2023-07-13T07:47:28;19.50;99.90
5280;DHT22;2663;53.588;10.010;2023-07-13T07:49:54;19.50;99.90
5280;DHT22;2663;53.588;10.010;2023-07-13T07:52:21;19.50;99.90
5280;DHT22;2663;53.588;10.010;2023-07-13T07:54:48;19.40;99.90
5280;DHT22;2663;53.588;10.010;2023-07-13T07:57:17;19.50;99.90
5280;DHT22;2663;53.588;10.010;2023-07-13T08:00:05;19.60;99.90
5280;DHT22;2663;53.588;10.010;2023-07-13T08:02:35;19.40;99.90
5280;DHT22;2663;53.588;10.010;2023-07-13T08:05:04;19.50;99.90
5280;DHT22;2663;53.588;10.010;2023-07-13T08:07:35;19.70;99.90
5280;DHT22;2663;53.588;10.010;2023-07-13T08:10:02;19.70;99.90
5280;DHT22;2663;53.588;10.010;2023-07-13T08:12:29;19.80;99.90
5280;DHT22;2663;53.588;10.010;2023-07-13T08:14:58;20.00;99.90
5280;DHT22;2663;53.588;10.010;2023-07-13T08:17:27;20.00;99.90
5280;DHT22;2663;53.588;10.010;2023-07-13T08:19:54;20.10;99.90
5280;DHT22;2663;53.588;10.010;2023-07-13T08:22:21;20.10;99.90
5280;DHT22;2663;53.588;10.010;2023-07-13T08:24:48;20.20;99.90
5280;DHT22;2663;53.588;10.010;2023-07-13T08:27:22;20.30;99.90
5280;DHT22;2663;53.588;10.010;2023-07-13T08:29:50;20.30;99.90
5280;DHT22;2663;53.588;10.010;2023-07-13T08:32:19;20.30;99.90
5280;DHT22;2663;53.588;10.010;2023-07-13T08:34:46;20.30;99.90
5280;DHT22;2663;53.588;10.010;2023-07-13T08:37:14;20.30;99.90
5280;DHT22;2663;53.588;10.010;2023-07-13T08:39:41;20.10;99.90
5280;DHT22;2663;53.588;10.010;2023-07-13T08:42:30;20.10;99.90
5280;DHT22;2663;53.588;10.010;2023-07-13T08:45:21;20.10;99.90
5280;DHT22;2663;53.588;10.010;2023-07-13T08:47:53;20.00;99.90
5280;DHT22;2663;53.588;10.010;2023-07-13T08:50:25;20.10;99.90
5280;DHT22;2663;53.588;10.010;2023-07-13T08:52:55;20.00;99.90
5280;DHT22;2663;53.588;10.010;2023-07-13T08:55:30;20.00;99.90
5280;DHT22;2663;53.588;10.010;2023-07-13T08:58:09;20.20;99.90
5280;DHT22;2663;53.588;10.010;2023-07-13T09:03:22;20.40;99.90
5280;DHT22;2663;53.588;10.010;2023-07-13T09:05:54;20.10;99.90
5280;DHT22;2663;53.588;10.010;2023-07-13T09:08:39;20.10;99.90
5280;DHT22;2663;53.588;10.010;2023-07-13T09:11:36;20.30;99.90
5280;DHT22;2663;53.588;10.010;2023-07-13T09:14:25;20.60;99.90
5280;DHT22;2663;53.588;10.010;2023-07-13T09:16:54;20.70;99.90
5280;DHT22;2663;53.588;10.010;2023-07-13T09:19:32;20.50;99.90
5280;DHT22;2663;53.588;10.010;2023-07-13T09:22:03;20.60;99.90
5280;DHT22;2663;53.588;10.010;2023-07-13T09:24:35;20.60;99.90
5280;DHT22;2663;53.588;10.010;2023-07-13T09:27:14;20.60;99.90
5280;DHT22;2663;53.588;10.010;2023-07-13T09:29:50;20.40;99.90
5280;DHT22;2663;53.588;10.010;2023-07-13T09:32:21;20.60;99.90
5280;DHT22;2663;53.588;10.010;2023-07-13T09:34:55;20.80;99.90
5280;DHT22;2663;53.588;10.010;2023-07-13T09:37:29;20.90;99.90
5280;DHT22;2663;53.588;10.010;2023-07-13T09:39:58;20.90;99.90
5280;DHT22;2663;53.588;10.010;2023-07-13T09:42:26;20.90;99.90
5280;DHT22;2663;53.588;10.010;2023-07-13T09:44:58;20.90;99.90
5280;DHT22;2663;53.588;10.010;2023-07-13T09:47:30;21.00;99.90
5280;DHT22;2663;53.588;10.010;2023-07-13T09:50:03;21.30;99.90
5280;DHT22;2663;53.588;10.010;2023-07-13T09:52:44;21.20;99.90
5280;DHT22;2663;53.588;10.010;2023-07-13T09:55:30;21.20;99.90
5280;DHT22;2663;53.588;10.010;2023-07-13T09:57:58;21.10;99.90
5280;DHT22;2663;53.588;10.010;2023-07-13T10:00:29;21.10;99.90
5280;DHT22;2663;53.588;10.010;2023-07-13T10:03:02;21.10;99.90
5280;DHT22;2663;53.588;10.010;2023-07-13T10:05:41;21.00;99.90
5280;DHT22;2663;53.588;10.010;2023-07-13T10:08:24;21.10;99.90
5280;DHT22;2663;53.588;10.010;2023-07-13T10:10:54;21.10;99.90
5280;DHT22;2663;53.588;10.010;2023-07-13T10:13:34;21.00;99.90
5280;DHT22;2663;53.588;10.010;2023-07-13T10:16:07;21.10;99.90
5280;DHT22;2663;53.588;10.010;2023-07-13T10:18:55;21.20;99.90
5280;DHT22;2663;53.588;10.010;2023-07-13T10:21:28;21.50;99.90
5280;DHT22;2663;53.588;10.010;2023-07-13T10:24:21;21.50;99.90
5280;DHT22;2663;53.588;10.010;2023-07-13T10:27:03;21.60;99.90
5280;DHT22;2663;53.588;10.010;2023-07-13T10:30:04;21.50;99.90
5280;DHT22;2663;53.588;10.010;2023-07-13T10:32:35;21.40;99.90
5280;DHT22;2663;53.588;10.010;2023-07-13T10:35:03;21.40;99.90
5280;DHT22;2663;53.588;10.010;2023-07-13T10:37:37;21.40;99.80
5280;DHT22;2663;53.588;10.010;2023-07-13T10:40:11;21.50;99.90
5280;DHT22;2663;53.588;10.010;2023-07-13T10:42:43;21.50;99.80
5280;DHT22;2663;53.588;10.010;2023-07-13T10:45:14;21.60;99.20
5280;DHT22;2663;53.588;10.010;2023-07-13T10:47:42;21.50;99.20
5280;DHT22;2663;53.588;10.010;2023-07-13T10:50:17;21.50;99.00
5280;DHT22;2663;53.588;10.010;2023-07-13T10:52:48;21.70;98.60
5280;DHT22;2663;53.588;10.010;2023-07-13T10:58:38;22.00;98.50
5280;DHT22;2663;53.588;10.010;2023-07-13T11:01:39;22.00;98.30
5280;DHT22;2663;53.588;10.010;2023-07-13T11:04:12;22.10;98.30
5280;DHT22;2663;53.588;10.010;2023-07-13T11:06:48;22.20;97.80
5280;DHT22;2663;53.588;10.010;2023-07-13T11:09:39;22.30;97.00
5280;DHT22;2663;53.588;10.010;2023-07-13T11:15:03;22.60;97.50
5280;DHT22;2663;53.588;10.010;2023-07-13T11:17:46;22.60;97.30
5280;DHT22;2663;53.588;10.010;2023-07-13T11:22:47;22.00;97.60
5280;DHT22;2663;53.588;10.010;2023-07-13T11:25:29;22.50;97.80
5280;DHT22;2663;53.588;10.010;2023-07-13T11:30:39;22.20;97.20
5280;DHT22;2663;53.588;10.010;2023-07-13T11:36:04;22.10;97.10
5280;DHT22;2663;53.588;10.010;2023-07-13T11:38:47;22.20;96.80
5280;DHT22;2663;53.588;10.010;2023-07-13T11:41:25;22.20;96.70
5280;DHT22;2663;53.588;10.010;2023-07-13T11:44:16;22.30;96.60
5280;DHT22;2663;53.588;10.010;2023-07-13T11:46:58;22.30;96.40
5280;DHT22;2663;53.588;10.010;2023-07-13T11:49:30;22.40;96.60
5280;DHT22;2663;53.588;10.010;2023-07-13T11:51:59;22.60;96.50
5280;DHT22;2663;53.588;10.010;2023-07-13T11:54:33;22.50;96.80
5280;DHT22;2663;53.588;10.010;2023-07-13T11:57:28;22.70;96.90
5280;DHT22;2663;53.588;10.010;2023-07-13T11:59:56;22.30;96.50
5280;DHT22;2663;53.588;10.010;2023-07-13T12:02:31;22.10;97.00
5280;DHT22;2663;53.588;10.010;2023-07-13T12:05:04;22.10;97.30
5280;DHT22;2663;53.588;10.010;2023-07-13T12:07:32;22.70;97.50
5280;DHT22;2663;53.588;10.010;2023-07-13T12:10:21;21.90;97.60
5280;DHT22;2663;53.588;10.010;2023-07-13T12:12:54;22.00;97.90
5280;DHT22;2663;53.588;10.010;2023-07-13T12:15:23;21.80;97.50
5280;DHT22;2663;53.588;10.010;2023-07-13T12:17:51;21.60;98.60
5280;DHT22;2663;53.588;10.010;2023-07-13T12:20:27;21.50;99.00
5280;DHT22;2663;53.588;10.010;2023-07-13T12:22:54;20.40;99.90
5280;DHT22;2663;53.588;10.010;2023-07-13T12:25:22;19.20;99.90
5280;DHT22;2663;53.588;10.010;2023-07-13T12:35:26;17.80;99.90
5280;DHT22;2663;53.588;10.010;2023-07-13T12:37:53;17.80;99.90
5280;DHT22;2663;53.588;10.010;2023-07-13T12:40:21;17.80;99.90
5280;DHT22;2663;53.588;10.010;2023-07-13T12:42:52;18.00;99.90
5280;DHT22;2663;53.588;10.010;2023-07-13T12:48:14;18.20;99.90
5280;DHT22;2663;53.588;10.010;2023-07-13T12:50:46;18.40;99.90
5280;DHT22;2663;53.588;10.010;2023-07-13T12:53:19;18.70;99.90
5280;DHT22;2663;53.588;10.010;2023-07-13T12:55:54;18.90;99.90
5280;DHT22;2663;53.588;10.010;2023-07-13T12:58:27;19.00;99.90
5280;DHT22;2663;53.588;10.010;2023-07-13T13:00:57;19.10;99.90
5280;DHT22;2663;53.588;10.010;2023-07-13T13:03:33;19.20;99.90
5280;DHT22;2663;53.588;10.010;2023-07-13T13:06:05;19.30;99.90
5280;DHT22;2663;53.588;10.010;2023-07-13T13:08:34;19.20;99.90
5280;DHT22;2663;53.588;10.010;2023-07-13T13:11:02;19.10;99.90
5280;DHT22;2663;53.588;10.010;2023-07-13T13:13:28;19.00;99.90
5280;DHT22;2663;53.588;10.010;2023-07-13T13:15:55;19.10;99.90
5280;DHT22;2663;53.588;10.010;2023-07-13T13:18:24;19.00;99.90
5280;DHT22;2663;53.588;10.010;2023-07-13T13:20:51;19.00;99.90
5280;DHT22;2663;53.588;10.010;2023-07-13T13:23:19;19.00;99.90
5280;DHT22;2663;53.588;10.010;2023-07-13T13:25:49;19.10;99.90
5280;DHT22;2663;53.588;10.010;2023-07-13T13:28:18;19.10;99.90
5280;DHT22;2663;53.588;10.010;2023-07-13T13:30:47;19.20;99.90
5280;DHT22;2663;53.588;10.010;2023-07-13T13:33:19;19.20;99.90
5280;DHT22;2663;53.588;10.010;2023-07-13T13:35:46;19.30;99.90
5280;DHT22;2663;53.588;10.010;2023-07-13T13:38:19;19.40;99.90
5280;DHT22;2663;53.588;10.010;2023-07-13T13:40:46;19.50;99.90
5280;DHT22;2663;53.588;10.010;2023-07-13T13:45:45;19.50;99.90
5280;DHT22;2663;53.588;10.010;2023-07-13T13:48:29;19.60;99.90
5280;DHT22;2663;53.588;10.010;2023-07-13T13:50:58;19.80;99.90
5280;DHT22;2663;53.588;10.010;2023-07-13T13:53:25;19.90;99.90
5280;DHT22;2663;53.588;10.010;2023-07-13T13:55:52;20.00;99.90
5280;DHT22;2663;53.588;10.010;2023-07-13T13:58:19;20.10;99.90
5280;DHT22;2663;53.588;10.010;2023-07-13T14:00:47;20.10;99.90
5280;DHT22;2663;53.588;10.010;2023-07-13T14:03:20;19.90;99.90
5280;DHT22;2663;53.588;10.010;2023-07-13T14:05:48;19.80;99.90
5280;DHT22;2663;53.588;10.010;2023-07-13T14:08:18;20.00;99.90
5280;DHT22;2663;53.588;10.010;2023-07-13T14:10:46;19.90;99.90
5280;DHT22;2663;53.588;10.010;2023-07-13T14:13:20;20.00;99.90
5280;DHT22;2663;53.588;10.010;2023-07-13T14:15:48;20.10;99.90
5280;DHT22;2663;53.588;10.010;2023-07-13T14:18:15;20.00;99.90
5280;DHT22;2663;53.588;10.010;2023-07-13T14:20:47;20.10;99.90
5280;DHT22;2663;53.588;10.010;2023-07-13T14:23:15;20.00;99.90
5280;DHT22;2663;53.588;10.010;2023-07-13T14:25:42;20.10;99.90
5280;DHT22;2663;53.588;10.010;2023-07-13T14:28:24;20.00;99.90
5280;DHT22;2663;53.588;10.010;2023-07-13T14:30:52;20.00;99.90
5280;DHT22;2663;53.588;10.010;2023-07-13T14:33:21;20.10;99.90
5280;DHT22;2663;53.588;10.010;2023-07-13T14:35:49;20.30;99.90
5280;DHT22;2663;53.588;10.010;2023-07-13T14:38:19;20.40;99.90
5280;DHT22;2663;53.588;10.010;2023-07-13T14:40:47;20.60;99.90
5280;DHT22;2663;53.588;10.010;2023-07-13T14:43:15;20.90;99.90
5280;DHT22;2663;53.588;10.010;2023-07-13T14:45:45;21.10;99.90
5280;DHT22;2663;53.588;10.010;2023-07-13T14:48:23;21.00;99.90
5280;DHT22;2663;53.588;10.010;2023-07-13T14:50:55;20.50;99.90
5280;DHT22;2663;53.588;10.010;2023-07-13T14:53:24;20.60;99.90
5280;DHT22;2663;53.588;10.010;2023-07-13T14:55:51;20.50;99.90
5280;DHT22;2663;53.588;10.010;2023-07-13T14:58:18;20.50;99.90
5280;DHT22;2663;53.588;10.010;2023-07-13T15:00:45;20.40;99.90
5280;DHT22;2663;53.588;10.010;2023-07-13T15:03:21;20.10;99.90
5280;DHT22;2663;53.588;10.010;2023-07-13T15:05:51;20.10;99.90
5280;DHT22;2663;53.588;10.010;2023-07-13T15:08:19;20.20;99.90
5280;DHT22;2663;53.588;10.010;2023-07-13T15:10:46;20.40;99.90
5280;DHT22;2663;53.588;10.010;2023-07-13T15:13:18;20.40;99.90
5280;DHT22;2663;53.588;10.010;2023-07-13T15:15:50;20.50;99.90
5280;DHT22;2663;53.588;10.010;2023-07-13T15:18:20;20.60;99.90
5280;DHT22;2663;53.588;10.010;2023-07-13T15:20:48;20.60;99.90
5280;DHT22;2663;53.588;10.010;2023-07-13T15:23:17;22.30;99.90
5280;DHT22;2663;53.588;10.010;2023-07-13T15:25:45;20.40;99.90
5280;DHT22;2663;53.588;10.010;2023-07-13T15:28:12;20.20;99.90
5280;DHT22;2663;53.588;10.010;2023-07-13T15:30:45;20.20;99.90
5280;DHT22;2663;53.588;10.010;2023-07-13T15:33:27;20.20;99.90
5280;DHT22;2663;53.588;10.010;2023-07-13T15:35:55;20.40;99.90
5280;DHT22;2663;53.588;10.010;2023-07-13T15:38:31;20.40;99.90
5280;DHT22;2663;53.588;10.010;2023-07-13T15:40:59;20.40;99.90
5280;DHT22;2663;53.588;10.010;2023-07-13T15:43:26;20.50;99.90
5280;DHT22;2663;53.588;10.010;2023-07-13T15:45:53;20.50;99.90
5280;DHT22;2663;53.588;10.010;2023-07-13T15:48:22;20.70;99.90
5280;DHT22;2663;53.588;10.010;2023-07-13T15:50:54;20.80;99.90
5280;DHT22;2663;53.588;10.010;2023-07-13T15:53:25;20.80;99.90
5280;DHT22;2663;53.588;10.010;2023-07-13T15:55:54;20.80;99.90
5280;DHT22;2663;53.588;10.010;2023-07-13T15:58:21;20.80;99.90
5280;DHT22;2663;53.588;10.010;2023-07-13T16:00:48;21.00;99.90
5280;DHT22;2663;53.588;10.010;2023-07-13T16:03:20;21.30;99.90
5280;DHT22;2663;53.588;10.010;2023-07-13T16:05:54;21.80;99.90
5280;DHT22;2663;53.588;10.010;2023-07-13T16:08:27;22.20;99.90
5280;DHT22;2663;53.588;10.010;2023-07-13T16:10:58;22.10;99.90
5280;DHT22;2663;53.588;10.010;2023-07-13T16:13:26;21.80;99.90
5280;DHT22;2663;53.588;10.010;2023-07-13T16:15:53;21.70;99.90
5280;DHT22;2663;53.588;10.010;2023-07-13T16:18:23;21.30;99.90
5280;DHT22;2663;53.588;10.010;2023-07-13T16:20:50;21.20;99.90
5280;DHT22;2663;53.588;10.010;2023-07-13T16:23:18;21.20;99.90
5280;DHT22;2663;53.588;10.010;2023-07-13T16:25:45;21.00;99.90
5280;DHT22;2663;53.588;10.010;2023-07-13T16:28:12;21.00;99.90
5280;DHT22;2663;53.588;10.010;2023-07-13T16:30:40;21.70;99.90
5280;DHT22;2663;53.588;10.010;2023-07-13T16:33:07;22.90;99.90